Glen White, West Virginia
Current Conditions -  °F | °C
As of 9:51 PM on Tuesday 21 Oct 2014 (Local Time) from KBKW Reporting Station
Light Rain Light Rain  
Wind Chill: 39°   Ceiling: 900
Heat Index: 43°   Visibility: 10mi
Dew Point: 40°   Wind: 6mph
Humidity: 89%   Direction: 300°WNW
Pressure: 30.04"   Gusts: NA
Location:  37.73°N, 81.28°W
Report Text: KBKW 220151Z AUTO 30005KT 10SM -RA BKN009 OVC026 06/04 A3004 RMK AO2 SLP175 P0001 T00610044 TSNO
Loading
Personal Weather Stations






























Interactive Weather Map
Tropical Storm Tracking
New forecast layout! Learn more

10-Day Weather Forecast

Advertisements
Track Severe Weather on mobile